createdAt,value
2016-12-19T00:00:54.829Z,0
2016-12-19T00:02:03.720Z,0
2016-12-19T00:03:12.936Z,0
2016-12-19T00:04:21.509Z,0
2016-12-19T00:05:30.081Z,0
2016-12-19T00:06:38.703Z,0
2016-12-19T00:07:47.276Z,0
2016-12-19T00:08:55.905Z,0
2016-12-19T00:10:04.475Z,0
2016-12-19T00:11:13.054Z,0
2016-12-19T00:12:22.083Z,0
2016-12-19T00:13:30.975Z,0
2016-12-19T00:14:39.551Z,0
2016-12-19T00:15:48.125Z,0
2016-12-19T00:16:56.695Z,0
2016-12-19T00:18:05.641Z,0
2016-12-19T00:19:14.209Z,0
2016-12-19T00:20:22.785Z,0
2016-12-19T00:21:31.679Z,0
2016-12-19T00:22:40.257Z,0
2016-12-19T00:23:49.819Z,0
2016-12-19T00:24:59.027Z,0
2016-12-19T00:26:07.604Z,0
2016-12-19T00:27:16.496Z,0
2016-12-19T00:28:25.074Z,0
2016-12-19T00:29:34.639Z,0
2016-12-19T00:30:43.207Z,0
2016-12-19T00:31:52.417Z,0
2016-12-19T00:33:00.991Z,0
2016-12-19T00:34:09.883Z,0
2016-12-19T00:35:18.910Z,0
2016-12-19T00:36:27.805Z,0
2016-12-19T00:37:36.380Z,0
2016-12-19T00:38:45.274Z,0
2016-12-19T00:39:54.164Z,0
2016-12-19T00:41:03.208Z,0
2016-12-19T00:42:12.127Z,0
2016-12-19T00:43:20.698Z,0
2016-12-19T00:44:29.911Z,0
2016-12-19T00:45:38.491Z,0
2016-12-19T00:46:48.078Z,0
2016-12-19T00:47:56.648Z,0
2016-12-19T00:49:05.538Z,0
2016-12-19T00:50:15.065Z,0
2016-12-19T00:51:23.955Z,0
2016-12-19T00:52:32.987Z,0
2016-12-19T00:53:41.567Z,0
2016-12-19T00:54:50.458Z,0
2016-12-19T00:55:59.035Z,0
2016-12-19T00:57:07.932Z,0
2016-12-19T00:58:16.551Z,0
2016-12-19T00:59:25.764Z,0
2016-12-19T01:00:34.981Z,0
2016-12-19T01:01:44.194Z,0
2016-12-19T01:02:53.092Z,0
2016-12-19T01:04:01.762Z,0
2016-12-19T01:05:10.658Z,0
2016-12-19T01:06:19.548Z,0
2016-12-19T01:07:28.436Z,0
2016-12-19T01:08:37.334Z,0
2016-12-19T01:09:46.276Z,0
2016-12-19T01:10:55.168Z,0
2016-12-19T01:12:03.746Z,0
2016-12-19T01:13:12.334Z,0
2016-12-19T01:14:21.226Z,0
2016-12-19T01:15:30.166Z,0
2016-12-19T01:16:39.057Z,0
2016-12-19T01:17:47.645Z,0
2016-12-19T01:18:56.224Z,0
2016-12-19T01:20:04.802Z,0
2016-12-19T01:21:13.426Z,0
2016-12-19T01:22:22.318Z,0
2016-12-19T01:23:31.210Z,0
2016-12-19T01:24:39.791Z,0
2016-12-19T01:25:48.360Z,0
2016-12-19T01:26:57.302Z,0
2016-12-19T01:28:06.192Z,0
2016-12-19T01:29:14.763Z,0
2016-12-19T01:30:23.656Z,0
2016-12-19T01:31:32.229Z,0
2016-12-19T01:32:41.491Z,0
2016-12-19T01:33:50.097Z,0
2016-12-19T01:34:58.984Z,0
2016-12-19T01:36:07.558Z,0
2016-12-19T01:37:16.452Z,0
2016-12-19T01:38:25.440Z,0
2016-12-19T01:39:34.335Z,0
2016-12-19T01:40:43.224Z,0
2016-12-19T01:41:51.791Z,0
2016-12-19T01:43:00.999Z,0
2016-12-19T01:44:09.622Z,0
2016-12-19T01:45:18.862Z,0
2016-12-19T01:46:27.760Z,0
2016-12-19T01:47:36.651Z,0
2016-12-19T01:48:45.544Z,0
2016-12-19T01:49:54.166Z,0
2016-12-19T01:51:03.378Z,0
2016-12-19T01:52:12.594Z,0
2016-12-19T01:53:21.510Z,0
2016-12-19T01:54:30.402Z,0
2016-12-19T01:55:39.027Z,0
2016-12-19T01:56:47.604Z,0
2016-12-19T01:57:56.818Z,0
2016-12-19T01:59:05.387Z,0
2016-12-19T02:00:13.957Z,0
2016-12-19T02:01:22.887Z,0
2016-12-19T02:02:31.457Z,0
2016-12-19T02:03:40.033Z,0
2016-12-19T02:04:48.632Z,0
2016-12-19T02:05:57.521Z,0
2016-12-19T02:07:06.149Z,0
2016-12-19T02:08:15.363Z,0
2016-12-19T02:09:24.255Z,0
2016-12-19T02:10:33.149Z,0
2016-12-19T02:11:41.723Z,0
2016-12-19T02:12:51.034Z,0
2016-12-19T02:13:59.924Z,0
2016-12-19T02:15:09.458Z,0
2016-12-19T02:16:18.032Z,0
2016-12-19T02:17:27.558Z,0
2016-12-19T02:18:36.181Z,0
2016-12-19T02:19:44.752Z,0
2016-12-19T02:20:53.327Z,0
2016-12-19T02:22:01.902Z,0
2016-12-19T02:23:10.472Z,0
2016-12-19T02:24:19.142Z,0
2016-12-19T02:25:28.031Z,0
2016-12-19T02:26:36.603Z,0
2016-12-19T02:27:48.848Z,0
2016-12-19T02:28:57.735Z,0
2016-12-19T02:30:06.657Z,0
2016-12-19T02:31:15.546Z,0
2016-12-19T02:32:24.762Z,0
2016-12-19T02:33:33.654Z,0
2016-12-19T02:34:43.181Z,0
2016-12-19T02:35:51.803Z,0
2016-12-19T02:37:00.374Z,0
2016-12-19T02:38:09.268Z,0
2016-12-19T02:39:18.157Z,0
2016-12-19T02:40:27.051Z,0
2016-12-19T02:41:36.042Z,0
2016-12-19T02:42:44.618Z,0
2016-12-19T02:43:53.511Z,0
2016-12-19T02:45:02.080Z,0
2016-12-19T02:46:10.652Z,0
2016-12-19T02:47:19.594Z,0
2016-12-19T02:48:28.495Z,0
2016-12-19T02:49:37.067Z,0
2016-12-19T02:50:45.638Z,0
2016-12-19T02:51:54.212Z,0
2016-12-19T02:53:03.181Z,0
2016-12-19T02:54:12.080Z,0
2016-12-19T02:55:20.976Z,0
2016-12-19T02:56:29.863Z,0
2016-12-19T02:57:38.756Z,0
2016-12-19T02:58:47.742Z,0
2016-12-19T02:59:56.637Z,0
2016-12-19T03:01:05.207Z,0
2016-12-19T03:02:14.417Z,0
2016-12-19T03:03:22.982Z,0
2016-12-19T03:04:31.976Z,0
2016-12-19T03:05:40.583Z,0
2016-12-19T03:06:49.155Z,0
2016-12-19T03:07:57.724Z,0
2016-12-19T03:09:06.291Z,0
2016-12-19T03:10:15.531Z,0
2016-12-19T03:11:24.104Z,0
2016-12-19T03:12:32.998Z,0
2016-12-19T03:13:41.893Z,0
2016-12-19T03:14:50.784Z,0
2016-12-19T03:15:59.702Z,0
2016-12-19T03:17:08.588Z,0
2016-12-19T03:18:17.160Z,0
2016-12-19T03:19:25.730Z,0
2016-12-19T03:20:34.301Z,0
2016-12-19T03:21:43.224Z,0
2016-12-19T03:22:51.795Z,0
2016-12-19T03:24:00.364Z,0
2016-12-19T03:25:09.255Z,0
2016-12-19T03:26:17.825Z,0
2016-12-19T03:27:26.448Z,0
2016-12-19T03:28:35.024Z,0
2016-12-19T03:29:43.908Z,0
2016-12-19T03:30:52.483Z,0
2016-12-19T03:32:01.054Z,0
2016-12-19T03:33:10.042Z,0
2016-12-19T03:34:18.615Z,0
2016-12-19T03:35:27.503Z,0
2016-12-19T03:36:36.397Z,0
2016-12-19T03:37:44.968Z,0
2016-12-19T03:38:54.208Z,0
2016-12-19T03:40:02.781Z,0
2016-12-19T03:41:11.671Z,0
2016-12-19T03:42:20.242Z,0
2016-12-19T03:43:29.136Z,0
2016-12-19T03:44:37.761Z,0
2016-12-19T03:45:46.651Z,0
2016-12-19T03:46:55.542Z,0
2016-12-19T03:48:04.433Z,0
2016-12-19T03:49:13.647Z,0
2016-12-19T03:50:22.585Z,0
2016-12-19T03:51:31.514Z,0
2016-12-19T03:52:40.407Z,0
2016-12-19T03:53:49.297Z,0
2016-12-19T03:54:58.222Z,0
2016-12-19T03:56:07.483Z,0
2016-12-19T03:57:16.376Z,0
2016-12-19T03:58:25.265Z,0
2016-12-19T03:59:33.838Z,0
2016-12-19T04:00:42.417Z,0
2016-12-19T04:01:51.390Z,0
2016-12-19T04:02:59.960Z,0
2016-12-19T04:04:08.849Z,0
2016-12-19T04:05:17.422Z,0
2016-12-19T04:06:25.997Z,0
2016-12-19T04:07:34.918Z,0
2016-12-19T04:08:43.493Z,0
2016-12-19T04:09:52.703Z,0
2016-12-19T04:11:01.914Z,0
2016-12-19T04:12:10.484Z,0
2016-12-19T04:13:19.472Z,0
2016-12-19T04:14:29.000Z,0
2016-12-19T04:15:37.572Z,0
2016-12-19T04:16:46.144Z,0
2016-12-19T04:17:54.718Z,0
2016-12-19T04:19:03.343Z,0
2016-12-19T04:20:11.914Z,0
2016-12-19T04:21:20.799Z,0
2016-12-19T04:22:29.369Z,0
2016-12-19T04:23:37.939Z,0
2016-12-19T04:24:47.246Z,0
2016-12-19T04:25:55.817Z,0
2016-12-19T04:27:04.386Z,0
2016-12-19T04:28:12.954Z,0
2016-12-19T04:29:21.846Z,0
2016-12-19T04:30:31.112Z,0
2016-12-19T04:31:40.324Z,0
2016-12-19T04:32:49.228Z,0
2016-12-19T04:33:57.798Z,0
2016-12-19T04:35:06.368Z,0
2016-12-19T04:36:14.991Z,0
2016-12-19T04:37:23.886Z,0
2016-12-19T04:38:32.460Z,0
2016-12-19T04:39:41.672Z,0
2016-12-19T04:40:50.244Z,0
2016-12-19T04:41:59.187Z,0
2016-12-19T04:43:07.753Z,0
2016-12-19T04:44:16.644Z,0
2016-12-19T04:45:25.535Z,0
2016-12-19T04:46:34.751Z,0
2016-12-19T04:47:43.376Z,0
2016-12-19T04:48:51.945Z,0
2016-12-19T04:50:00.514Z,0
2016-12-19T04:51:09.088Z,0
2016-12-19T04:52:17.659Z,0
2016-12-19T04:53:26.576Z,0
2016-12-19T04:54:35.469Z,0
2016-12-19T04:55:44.681Z,0
2016-12-19T04:56:53.251Z,0
2016-12-19T04:58:02.159Z,0
2016-12-19T04:59:11.095Z,0
2016-12-19T05:00:19.985Z,0
2016-12-19T05:01:28.554Z,0
2016-12-19T05:02:37.128Z,0
2016-12-19T05:03:46.016Z,0
2016-12-19T05:04:55.305Z,0
2016-12-19T05:06:04.226Z,0
2016-12-19T05:07:12.829Z,0
2016-12-19T05:08:21.400Z,0
2016-12-19T05:09:30.292Z,0
2016-12-19T05:10:39.283Z,0
2016-12-19T05:11:48.493Z,0
2016-12-19T05:12:57.384Z,0
2016-12-19T05:14:06.275Z,0
2016-12-19T05:15:14.844Z,0
2016-12-19T05:16:23.782Z,0
2016-12-19T05:17:32.994Z,0
2016-12-19T05:18:41.882Z,0
2016-12-19T05:19:50.454Z,0
2016-12-19T05:20:59.356Z,0
2016-12-19T05:22:08.028Z,0
2016-12-19T05:23:16.599Z,0
2016-12-19T05:24:25.173Z,0
2016-12-19T05:25:34.068Z,0
2016-12-19T05:26:42.956Z,0
2016-12-19T05:27:52.196Z,0
2016-12-19T05:29:01.085Z,0
2016-12-19T05:30:09.978Z,0
2016-12-19T05:31:18.863Z,0
2016-12-19T05:32:27.756Z,0
2016-12-19T05:33:36.700Z,0
2016-12-19T05:34:45.272Z,0
2016-12-19T05:35:54.160Z,0
2016-12-19T05:37:02.726Z,0
2016-12-19T05:38:11.298Z,0
2016-12-19T05:39:20.294Z,0
2016-12-19T05:40:28.869Z,0
2016-12-19T05:41:37.757Z,0
2016-12-19T05:42:46.331Z,0
2016-12-19T05:43:55.225Z,0
2016-12-19T05:45:04.783Z,0
2016-12-19T05:46:13.677Z,0
2016-12-19T05:47:22.245Z,0
2016-12-19T05:48:30.848Z,0
2016-12-19T05:49:39.424Z,0
2016-12-19T05:50:48.346Z,0
2016-12-19T05:51:57.232Z,0
2016-12-19T05:53:06.120Z,0
2016-12-19T05:54:14.689Z,0
2016-12-19T05:55:23.577Z,0
2016-12-19T05:56:32.530Z,0
2016-12-19T05:57:41.422Z,0
2016-12-19T05:58:50.310Z,0
2016-12-19T05:59:59.204Z,0
2016-12-19T06:01:07.781Z,0
2016-12-19T06:02:17.095Z,0
2016-12-19T06:03:25.688Z,0
2016-12-19T06:04:34.580Z,0
2016-12-19T06:05:43.149Z,0
2016-12-19T06:06:51.719Z,0
2016-12-19T06:08:00.343Z,0
2016-12-19T06:09:09.547Z,0
2016-12-19T06:10:18.436Z,0
2016-12-19T06:11:27.327Z,0
2016-12-19T06:12:36.229Z,0
2016-12-19T06:13:44.957Z,0
2016-12-19T06:14:53.527Z,0
2016-12-19T06:16:02.741Z,0
2016-12-19T06:17:11.657Z,0
2016-12-19T06:18:20.867Z,0
2016-12-19T06:19:29.839Z,0
2016-12-19T06:20:38.446Z,0
2016-12-19T06:21:47.062Z,0
2016-12-19T06:22:56.304Z,0
2016-12-19T06:24:05.195Z,0
2016-12-19T06:25:14.439Z,0
2016-12-19T06:26:23.015Z,0
2016-12-19T06:27:31.588Z,0
2016-12-19T06:28:40.476Z,0
2016-12-19T06:29:49.053Z,0
2016-12-19T06:30:58.299Z,0
2016-12-19T06:32:07.200Z,0
2016-12-19T06:33:16.103Z,0
2016-12-19T06:34:24.999Z,0
2016-12-19T06:35:33.574Z,0
2016-12-19T06:36:42.225Z,0
2016-12-19T06:37:51.118Z,0
2016-12-19T06:39:00.330Z,0
2016-12-19T06:40:08.906Z,0
2016-12-19T06:41:17.479Z,0
2016-12-19T06:42:26.143Z,0
2016-12-19T06:43:34.789Z,0
2016-12-19T06:44:43.645Z,0
2016-12-19T06:45:52.616Z,0
2016-12-19T06:47:01.530Z,0
2016-12-19T06:48:10.471Z,0
2016-12-19T06:49:19.036Z,0
2016-12-19T06:50:27.608Z,0
2016-12-19T06:51:36.186Z,0
2016-12-19T06:52:44.757Z,0
2016-12-19T06:53:54.730Z,0
2016-12-19T06:55:03.623Z,0
2016-12-19T06:56:12.837Z,0
2016-12-19T06:57:21.724Z,0
2016-12-19T06:58:30.299Z,0
2016-12-19T06:59:39.294Z,0
2016-12-19T07:00:48.825Z,4
2016-12-19T07:01:58.033Z,4
2016-12-19T07:03:07.239Z,0
2016-12-19T07:04:16.128Z,4
2016-12-19T07:05:24.748Z,4
2016-12-19T07:06:33.314Z,4
2016-12-19T07:07:42.199Z,4
2016-12-19T07:08:51.093Z,4
2016-12-19T07:09:59.672Z,8
2016-12-19T07:11:08.598Z,8
2016-12-19T07:12:17.489Z,12
2016-12-19T07:13:26.424Z,8
2016-12-19T07:14:35.321Z,12
2016-12-19T07:15:43.894Z,16
2016-12-19T07:16:52.842Z,16
2016-12-19T07:18:01.440Z,20
2016-12-19T07:19:10.009Z,24
2016-12-19T07:20:18.579Z,24
2016-12-19T07:21:27.151Z,28
2016-12-19T07:22:35.776Z,36
2016-12-19T07:23:44.346Z,40
2016-12-19T07:24:53.557Z,44
2016-12-19T07:26:02.770Z,52
2016-12-19T07:27:11.343Z,52
2016-12-19T07:28:20.283Z,60
2016-12-19T07:29:29.493Z,64
2016-12-19T07:30:38.385Z,76
2016-12-19T07:31:46.984Z,84
2016-12-19T07:32:55.876Z,92
2016-12-19T07:34:04.497Z,104
2016-12-19T07:35:13.488Z,116
2016-12-19T07:36:22.378Z,128
2016-12-19T07:37:30.951Z,140
2016-12-19T07:38:39.861Z,160
2016-12-19T07:39:49.119Z,172
2016-12-19T07:40:58.333Z,192
2016-12-19T07:42:07.231Z,208
2016-12-19T07:43:16.436Z,224
2016-12-19T07:44:25.324Z,244
2016-12-19T07:45:34.317Z,264
2016-12-19T07:46:42.889Z,280
2016-12-19T07:47:51.777Z,296
2016-12-19T07:49:01.302Z,308
2016-12-19T07:50:09.873Z,324
2016-12-19T07:51:18.811Z,332
2016-12-19T07:52:27.701Z,344
2016-12-19T07:53:36.269Z,360
2016-12-19T07:54:45.477Z,372
2016-12-19T07:55:54.370Z,392
2016-12-19T07:57:03.360Z,404
2016-12-19T07:58:12.568Z,416
2016-12-19T07:59:21.459Z,420
2016-12-19T08:00:30.350Z,428
2016-12-19T08:01:38.922Z,456
2016-12-19T08:02:47.863Z,488
2016-12-19T08:03:56.756Z,524
2016-12-19T08:05:05.647Z,560
2016-12-19T08:06:14.220Z,592
2016-12-19T08:07:22.792Z,620
2016-12-19T08:08:32.067Z,660
2016-12-19T08:09:40.637Z,700
2016-12-19T08:10:49.225Z,724
2016-12-19T08:11:58.121Z,740
2016-12-19T08:13:06.707Z,752
2016-12-19T08:14:15.331Z,764
2016-12-19T08:15:24.551Z,788
2016-12-19T08:16:33.766Z,796
2016-12-19T08:17:42.339Z,808
2016-12-19T08:18:51.442Z,848
2016-12-19T08:20:00.111Z,908
2016-12-19T08:21:09.321Z,964
2016-12-19T08:22:18.231Z,976
2016-12-19T08:23:27.147Z,1040
2016-12-19T08:24:35.717Z,1104
2016-12-19T08:25:44.745Z,1140
2016-12-19T08:26:53.317Z,1180
2016-12-19T08:28:02.210Z,1228
2016-12-19T08:29:10.800Z,1276
2016-12-19T08:30:19.715Z,1336
2016-12-19T08:31:28.662Z,1380
2016-12-19T08:32:37.559Z,1400
2016-12-19T08:33:46.469Z,1420
2016-12-19T08:34:55.381Z,1460
2016-12-19T08:36:04.273Z,1520
2016-12-19T08:37:13.207Z,1552
2016-12-19T08:38:21.791Z,1592
2016-12-19T08:39:30.376Z,1652
2016-12-19T08:40:39.275Z,1692
2016-12-19T08:41:48.166Z,1704
2016-12-19T08:42:56.835Z,1736
2016-12-19T08:44:05.409Z,1748
2016-12-19T08:45:13.982Z,1728
2016-12-19T08:46:22.553Z,1756
2016-12-19T08:47:31.123Z,1812
2016-12-19T08:48:40.046Z,1820
2016-12-19T08:49:48.939Z,1852
2016-12-19T08:50:57.559Z,1912
2016-12-19T08:52:06.140Z,2004
2016-12-19T08:53:15.357Z,2096
2016-12-19T08:54:24.598Z,2212
2016-12-19T08:55:33.171Z,2364
2016-12-19T08:56:41.743Z,2536
2016-12-19T08:57:50.638Z,2692
2016-12-19T08:58:59.215Z,2756
2016-12-19T09:00:08.158Z,2748
2016-12-19T09:01:17.372Z,2756
2016-12-19T09:02:26.268Z,2792
2016-12-19T09:03:35.158Z,2848
2016-12-19T09:04:44.051Z,2896
2016-12-19T09:05:53.425Z,2928
2016-12-19T09:07:02.629Z,2916
2016-12-19T09:08:11.836Z,2948
2016-12-19T09:09:20.438Z,2988
2016-12-19T09:10:29.336Z,2980
2016-12-19T09:11:38.326Z,2988
2016-12-19T09:12:47.532Z,3036
2016-12-19T09:13:56.106Z,3112
2016-12-19T09:15:04.685Z,3200
2016-12-19T09:16:13.893Z,3212
2016-12-19T09:17:22.847Z,3132
2016-12-19T09:18:31.803Z,3116
2016-12-19T09:19:40.733Z,3144
2016-12-19T09:20:49.306Z,3160
2016-12-19T09:21:58.208Z,3148
2016-12-19T09:23:06.834Z,3208
2016-12-19T09:24:15.405Z,3268
2016-12-19T09:25:24.307Z,3248
2016-12-19T09:26:33.522Z,3272
2016-12-19T09:27:42.092Z,3256
2016-12-19T09:28:51.047Z,3204
2016-12-19T09:29:59.953Z,3180
2016-12-19T09:31:08.844Z,3128
2016-12-19T09:32:17.414Z,3112
2016-12-19T09:33:25.999Z,3108
2016-12-19T09:34:35.033Z,3088
2016-12-19T09:35:43.608Z,3116
2016-12-19T09:36:52.525Z,3188
2016-12-19T09:38:01.414Z,3232
2016-12-19T09:39:10.317Z,3312
2016-12-19T09:40:19.258Z,3396
2016-12-19T09:41:27.857Z,3404
2016-12-19T09:42:37.394Z,3356
2016-12-19T09:43:46.606Z,3348
2016-12-19T09:44:55.251Z,3380
2016-12-19T09:46:03.883Z,3408
2016-12-19T09:47:12.453Z,3512
2016-12-19T09:48:21.348Z,3616
2016-12-19T09:49:30.880Z,3684
2016-12-19T09:50:39.802Z,3684
2016-12-19T09:51:49.383Z,3644
2016-12-19T09:52:58.272Z,3648
2016-12-19T09:54:06.845Z,3664
2016-12-19T09:55:15.745Z,3616
2016-12-19T09:56:24.958Z,3556
2016-12-19T09:57:33.898Z,3536
2016-12-19T09:58:42.785Z,3548
2016-12-19T09:59:51.360Z,3628
2016-12-19T10:00:59.932Z,3596
2016-12-19T10:02:08.507Z,3644
2016-12-19T10:03:17.130Z,3856
2016-12-19T10:04:26.342Z,3960
2016-12-19T10:05:35.242Z,3948
2016-12-19T10:06:44.136Z,3916
2016-12-19T10:07:53.024Z,3928
2016-12-19T10:09:02.371Z,3892
2016-12-19T10:10:10.951Z,3956
2016-12-19T10:11:20.158Z,4192
2016-12-19T10:12:28.793Z,4472
2016-12-19T10:13:37.686Z,4592
2016-12-19T10:14:46.928Z,4544
2016-12-19T10:15:56.134Z,4352
2016-12-19T10:17:05.066Z,4164
2016-12-19T10:18:14.283Z,4068
2016-12-19T10:19:22.854Z,4160
2016-12-19T10:20:31.848Z,4264
2016-12-19T10:21:40.748Z,4248
2016-12-19T10:22:49.635Z,4180
2016-12-19T10:23:58.558Z,4100
2016-12-19T10:25:07.459Z,4092
2016-12-19T10:26:16.754Z,4296
2016-12-19T10:27:25.967Z,4512
2016-12-19T10:28:34.544Z,4444
2016-12-19T10:29:43.120Z,4380
2016-12-19T10:30:51.701Z,4412
2016-12-19T10:32:00.426Z,4428
2016-12-19T10:33:09.341Z,4420
2016-12-19T10:34:17.918Z,4604
2016-12-19T10:35:26.818Z,4592
2016-12-19T10:36:36.030Z,4576
2016-12-19T10:37:44.955Z,4740
2016-12-19T10:38:53.845Z,4904
2016-12-19T10:40:02.421Z,5032
2016-12-19T10:41:11.003Z,5000
2016-12-19T10:42:19.897Z,4884
2016-12-19T10:43:28.857Z,4736
2016-12-19T10:44:37.438Z,4672
2016-12-19T10:45:46.977Z,4716
2016-12-19T10:46:55.869Z,4676
2016-12-19T10:48:04.808Z,4588
2016-12-19T10:49:14.053Z,4544
2016-12-19T10:50:22.630Z,4524
2016-12-19T10:51:31.522Z,4480
2016-12-19T10:52:40.416Z,4460
2016-12-19T10:53:49.628Z,4484
2016-12-19T10:54:58.313Z,4564
2016-12-19T10:56:07.239Z,4496
2016-12-19T10:57:15.811Z,4368
2016-12-19T10:58:24.383Z,4328
2016-12-19T10:59:32.962Z,4316
2016-12-19T11:00:41.909Z,4332
2016-12-19T11:01:50.818Z,4528
2016-12-19T11:02:59.389Z,4792
2016-12-19T11:04:07.959Z,4976
2016-12-19T11:05:16.536Z,5128
2016-12-19T11:06:25.211Z,5224
2016-12-19T11:07:34.106Z,5308
2016-12-19T11:08:42.679Z,5420
2016-12-19T11:09:51.895Z,5432
2016-12-19T11:11:00.793Z,5408
2016-12-19T11:12:09.466Z,5288
2016-12-19T11:13:18.039Z,5212
2016-12-19T11:14:26.645Z,5264
2016-12-19T11:15:35.855Z,5336
2016-12-19T11:16:44.747Z,5376
2016-12-19T11:17:53.371Z,5392
2016-12-19T11:19:01.968Z,5356
2016-12-19T11:20:10.864Z,5356
2016-12-19T11:21:19.440Z,5436
2016-12-19T11:22:28.011Z,5468
2016-12-19T11:23:36.634Z,5448
2016-12-19T11:24:45.209Z,5252
2016-12-19T11:25:53.812Z,4992
2016-12-19T11:27:02.388Z,4828
2016-12-19T11:28:11.025Z,4760
2016-12-19T11:29:19.648Z,4796
2016-12-19T11:30:28.223Z,4816
2016-12-19T11:31:37.119Z,4744
2016-12-19T11:32:46.012Z,4708
2016-12-19T11:33:54.904Z,4676
2016-12-19T11:35:03.558Z,4668
2016-12-19T11:36:12.449Z,4648
2016-12-19T11:37:21.040Z,4672
2016-12-19T11:38:29.946Z,4700
2016-12-19T11:39:38.842Z,4620
2016-12-19T11:40:48.201Z,4508
2016-12-19T11:41:57.099Z,4424
2016-12-19T11:43:05.674Z,4420
2016-12-19T11:44:14.565Z,4392
2016-12-19T11:45:23.142Z,4264
2016-12-19T11:46:32.131Z,4184
2016-12-19T11:47:40.711Z,4148
2016-12-19T11:48:49.606Z,4200
2016-12-19T11:49:58.830Z,4244
2016-12-19T11:51:08.058Z,4252
2016-12-19T11:52:17.371Z,4248
2016-12-19T11:53:25.952Z,4284
2016-12-19T11:54:35.485Z,4280
2016-12-19T11:55:44.378Z,4288
2016-12-19T11:56:52.955Z,4336
2016-12-19T11:58:02.210Z,4440
2016-12-19T11:59:10.820Z,4604
2016-12-19T12:00:19.719Z,4692
2016-12-19T12:01:28.956Z,4692
2016-12-19T12:02:38.166Z,4472
2016-12-19T12:03:46.895Z,4280
2016-12-19T12:04:55.806Z,4292
2016-12-19T12:06:04.381Z,4320
2016-12-19T12:07:13.271Z,4360
2016-12-19T12:08:22.169Z,4408
2016-12-19T12:09:31.794Z,4316
2016-12-19T12:10:40.684Z,4276
2016-12-19T12:11:49.895Z,4276
2016-12-19T12:12:58.466Z,4288
2016-12-19T12:14:07.359Z,4320
2016-12-19T12:15:16.976Z,4312
2016-12-19T12:16:25.874Z,4208
2016-12-19T12:17:34.786Z,4132
2016-12-19T12:18:43.365Z,4184
2016-12-19T12:19:51.962Z,4180
2016-12-19T12:21:00.644Z,4172
2016-12-19T12:22:09.534Z,4092
2016-12-19T12:23:18.440Z,3936
2016-12-19T12:24:27.013Z,3756
2016-12-19T12:25:36.224Z,3608
2016-12-19T12:26:45.471Z,3536
2016-12-19T12:27:54.042Z,3548
2016-12-19T12:29:02.619Z,3552
2016-12-19T12:30:11.194Z,3544
2016-12-19T12:31:19.767Z,3484
2016-12-19T12:32:28.389Z,3352
2016-12-19T12:33:36.972Z,3304
2016-12-19T12:34:45.864Z,3232
2016-12-19T12:35:54.441Z,3196
2016-12-19T12:37:03.014Z,3212
2016-12-19T12:38:11.662Z,3172
2016-12-19T12:39:20.554Z,3088
2016-12-19T12:40:29.766Z,3032
2016-12-19T12:41:38.344Z,2996
2016-12-19T12:42:47.238Z,3064
2016-12-19T12:43:56.600Z,3108
2016-12-19T12:45:05.491Z,3104
2016-12-19T12:46:14.383Z,3152
2016-12-19T12:47:22.956Z,3232
2016-12-19T12:48:31.535Z,3288
2016-12-19T12:49:40.157Z,3268
2016-12-19T12:50:49.050Z,3356
2016-12-19T12:51:57.944Z,3528
2016-12-19T12:53:07.155Z,3608
2016-12-19T12:54:15.724Z,3612
2016-12-19T12:55:24.753Z,3616
2016-12-19T12:56:33.333Z,3628
2016-12-19T12:57:41.909Z,3744
2016-12-19T12:58:50.801Z,3804
2016-12-19T12:59:59.376Z,3816
2016-12-19T13:01:08.098Z,4004
2016-12-19T13:02:17.318Z,4080
2016-12-19T13:03:26.529Z,3956
2016-12-19T13:04:35.423Z,3996
2016-12-19T13:05:44.321Z,3996
2016-12-19T13:06:53.266Z,3956
2016-12-19T13:08:02.163Z,4044
2016-12-19T13:09:11.054Z,4128
2016-12-19T13:10:19.626Z,4076
2016-12-19T13:11:28.544Z,4060
2016-12-19T13:12:37.220Z,3956
2016-12-19T13:13:46.449Z,3876
2016-12-19T13:14:55.021Z,3740
2016-12-19T13:16:03.600Z,3564
2016-12-19T13:17:12.843Z,3480
2016-12-19T13:18:21.470Z,3404
2016-12-19T13:19:30.400Z,3440
2016-12-19T13:20:38.971Z,3448
2016-12-19T13:21:47.865Z,3464
2016-12-19T13:22:56.749Z,3392
2016-12-19T13:24:06.104Z,3472
2016-12-19T13:25:14.678Z,3452
2016-12-19T13:26:23.570Z,3456
2016-12-19T13:27:32.157Z,3548
2016-12-19T13:28:41.054Z,3532
2016-12-19T13:29:49.674Z,3540
2016-12-19T13:30:58.273Z,3556
2016-12-19T13:32:07.167Z,3532
2016-12-19T13:33:15.744Z,3448
2016-12-19T13:34:24.688Z,3532
2016-12-19T13:35:33.370Z,3584
2016-12-19T13:36:42.279Z,3688
2016-12-19T13:37:51.170Z,3836
2016-12-19T13:38:59.742Z,3856
2016-12-19T13:40:08.344Z,3728
2016-12-19T13:41:16.967Z,3616
2016-12-19T13:42:25.860Z,3356
2016-12-19T13:43:34.440Z,3196
2016-12-19T13:44:43.650Z,3104
2016-12-19T13:45:52.235Z,3120
2016-12-19T13:47:01.198Z,3272
2016-12-19T13:48:09.766Z,3216
2016-12-19T13:49:18.658Z,2832
2016-12-19T13:50:27.616Z,2712
2016-12-19T13:51:36.239Z,2928
2016-12-19T13:52:45.178Z,3220
2016-12-19T13:53:54.069Z,2848
2016-12-19T13:55:02.658Z,2772
2016-12-19T13:56:11.245Z,2672
2016-12-19T13:57:19.815Z,2544
2016-12-19T13:58:28.812Z,2240
2016-12-19T13:59:37.714Z,1964
2016-12-19T14:00:46.625Z,1768
2016-12-19T14:01:55.829Z,1888
2016-12-19T14:03:05.050Z,1992
2016-12-19T14:04:14.305Z,1844
2016-12-19T14:05:22.892Z,1788
2016-12-19T14:06:31.473Z,1752
2016-12-19T14:07:40.054Z,1984
2016-12-19T14:08:49.265Z,1900
2016-12-19T14:09:58.208Z,1876
2016-12-19T14:11:07.103Z,1764
2016-12-19T14:12:15.676Z,1776
2016-12-19T14:13:25.228Z,1788
2016-12-19T14:14:34.116Z,1700
2016-12-19T14:15:42.785Z,1624
2016-12-19T14:16:51.676Z,1616
2016-12-19T14:18:00.251Z,1628
2016-12-19T14:19:09.139Z,1548
2016-12-19T14:20:18.030Z,1560
2016-12-19T14:21:26.978Z,1576
2016-12-19T14:22:35.555Z,1508
2016-12-19T14:23:44.443Z,1560
2016-12-19T14:24:53.012Z,1588
2016-12-19T14:26:02.227Z,1664
2016-12-19T14:27:10.862Z,1736
2016-12-19T14:28:19.750Z,1644
2016-12-19T14:29:28.640Z,1640
2016-12-19T14:30:37.215Z,1588
2016-12-19T14:31:46.109Z,1536
2016-12-19T14:32:55.398Z,1460
2016-12-19T14:34:04.608Z,1404
2016-12-19T14:35:13.182Z,1356
2016-12-19T14:36:44.194Z,1344
2016-12-19T14:37:53.131Z,1292
2016-12-19T14:39:02.019Z,1292
2016-12-19T14:40:10.911Z,1296
2016-12-19T14:41:19.825Z,1208
2016-12-19T14:42:29.034Z,1200
2016-12-19T14:43:38.297Z,1100
2016-12-19T14:44:46.904Z,1064
2016-12-19T14:45:55.473Z,1024
2016-12-19T14:47:04.046Z,968
2016-12-19T14:48:12.951Z,932
2016-12-19T14:49:21.890Z,848
2016-12-19T14:50:31.419Z,740
2016-12-19T14:51:40.307Z,644
2016-12-19T14:52:49.199Z,564
2016-12-19T14:53:57.773Z,488
2016-12-19T14:55:06.697Z,468
2016-12-19T14:56:15.267Z,404
2016-12-19T14:57:23.839Z,376
2016-12-19T14:58:33.047Z,344
2016-12-19T14:59:41.626Z,316
2016-12-19T15:00:50.565Z,312
2016-12-19T15:01:59.139Z,264
2016-12-19T15:03:07.709Z,252
2016-12-19T15:04:16.283Z,248
2016-12-19T15:05:25.177Z,228
2016-12-19T15:06:34.483Z,200
2016-12-19T15:07:43.696Z,188
2016-12-19T15:08:52.274Z,172
2016-12-19T15:10:01.161Z,156
2016-12-19T15:11:09.730Z,164
2016-12-19T15:12:18.670Z,148
2016-12-19T15:13:27.559Z,120
2016-12-19T15:14:36.128Z,108
2016-12-19T15:15:44.697Z,104
2016-12-19T15:16:53.587Z,88
2016-12-19T15:18:02.605Z,80
2016-12-19T15:19:12.131Z,80
2016-12-19T15:20:21.018Z,72
2016-12-19T15:21:29.938Z,72
2016-12-19T15:22:38.829Z,56
2016-12-19T15:23:48.171Z,52
2016-12-19T15:24:57.087Z,44
2016-12-19T15:26:05.984Z,36
2016-12-19T15:27:15.193Z,28
2016-12-19T15:29:38.364Z,20
2016-12-19T15:30:46.934Z,16
2016-12-19T15:31:55.822Z,20
2016-12-19T15:33:04.392Z,12
2016-12-19T15:34:13.284Z,12
2016-12-19T15:35:22.521Z,12
2016-12-19T15:36:31.411Z,8
2016-12-19T15:37:40.620Z,8
2016-12-19T15:38:49.192Z,8
2016-12-19T15:39:57.765Z,4
2016-12-19T15:41:06.706Z,4
2016-12-19T15:42:15.277Z,0
2016-12-19T15:43:24.164Z,4
2016-12-19T15:44:33.051Z,4
2016-12-19T15:45:41.660Z,0
2016-12-19T15:46:50.649Z,4
2016-12-19T15:47:59.859Z,4
2016-12-19T15:49:08.431Z,0
2016-12-19T15:50:17.002Z,0
2016-12-19T15:51:25.588Z,0
2016-12-19T15:52:34.530Z,0
2016-12-19T15:53:43.735Z,0
2016-12-19T15:54:52.308Z,0
2016-12-19T15:56:00.873Z,0
2016-12-19T15:57:09.759Z,0
2016-12-19T15:58:18.693Z,0
2016-12-19T15:59:27.583Z,0
2016-12-19T16:00:36.158Z,0
2016-12-19T16:01:45.045Z,0
2016-12-19T16:02:53.939Z,0
2016-12-19T16:04:02.506Z,0
2016-12-19T16:05:11.391Z,0
2016-12-19T16:06:19.971Z,0
2016-12-19T16:07:28.545Z,0
2016-12-19T16:08:38.069Z,0
2016-12-19T16:09:47.088Z,0